sensor_id;sensor_type;location;lat;lon;timestamp;pressure;altitude;pressure_sealevel;temperature;humidity
9141;BME280;46330;50.822;7.126;2023-05-23T00:00:42;101006.31;;;15.90;96.40
9141;BME280;46330;50.822;7.126;2023-05-23T00:03:10;101016.81;;;15.92;96.64
9141;BME280;46330;50.822;7.126;2023-05-23T00:05:38;101015.34;;;15.83;97.53
9141;BME280;46330;50.822;7.126;2023-05-23T00:08:06;101021.59;;;15.81;98.18
9141;BME280;46330;50.822;7.126;2023-05-23T00:10:36;101025.31;;;15.75;98.78
9141;BME280;46330;50.822;7.126;2023-05-23T00:13:04;101021.00;;;15.73;99.19
9141;BME280;46330;50.822;7.126;2023-05-23T00:15:35;101031.09;;;15.60;100.00
9141;BME280;46330;50.822;7.126;2023-05-23T00:18:04;101028.25;;;15.66;100.00
9141;BME280;46330;50.822;7.126;2023-05-23T00:20:35;101032.25;;;15.51;100.00
9141;BME280;46330;50.822;7.126;2023-05-23T00:23:03;101028.63;;;15.55;100.00
9141;BME280;46330;50.822;7.126;2023-05-23T00:25:31;101028.84;;;15.49;100.00
9141;BME280;46330;50.822;7.126;2023-05-23T00:28:01;101019.25;;;15.45;100.00
9141;BME280;46330;50.822;7.126;2023-05-23T00:30:30;101035.25;;;15.41;100.00
9141;BME280;46330;50.822;7.126;2023-05-23T00:32:59;101033.41;;;15.43;100.00
9141;BME280;46330;50.822;7.126;2023-05-23T00:35:27;101028.34;;;15.37;100.00
9141;BME280;46330;50.822;7.126;2023-05-23T00:37:55;101031.06;;;15.34;100.00
9141;BME280;46330;50.822;7.126;2023-05-23T00:40:23;101021.53;;;15.30;100.00
9141;BME280;46330;50.822;7.126;2023-05-23T00:42:51;101024.47;;;15.21;100.00
9141;BME280;46330;50.822;7.126;2023-05-23T00:45:21;101024.63;;;15.16;100.00
9141;BME280;46330;50.822;7.126;2023-05-23T00:47:49;101030.63;;;15.20;100.00
9141;BME280;46330;50.822;7.126;2023-05-23T00:50:19;101031.69;;;15.14;100.00
9141;BME280;46330;50.822;7.126;2023-05-23T00:52:48;101031.09;;;15.06;100.00
9141;BME280;46330;50.822;7.126;2023-05-23T00:55:16;101023.22;;;15.04;100.00
9141;BME280;46330;50.822;7.126;2023-05-23T00:57:44;101036.59;;;14.98;100.00
9141;BME280;46330;50.822;7.126;2023-05-23T01:00:14;101035.69;;;14.99;100.00
9141;BME280;46330;50.822;7.126;2023-05-23T01:02:46;101031.56;;;14.91;100.00
9141;BME280;46330;50.822;7.126;2023-05-23T01:05:17;101038.50;;;14.93;100.00
9141;BME280;46330;50.822;7.126;2023-05-23T01:07:46;101032.56;;;14.87;100.00
9141;BME280;46330;50.822;7.126;2023-05-23T01:10:16;101028.28;;;14.83;100.00
9141;BME280;46330;50.822;7.126;2023-05-23T01:12:55;101032.84;;;14.78;100.00
9141;BME280;46330;50.822;7.126;2023-05-23T01:15:28;101041.72;;;14.75;100.00
9141;BME280;46330;50.822;7.126;2023-05-23T01:18:05;101039.16;;;14.72;100.00
9141;BME280;46330;50.822;7.126;2023-05-23T01:20:37;101036.47;;;14.74;100.00
9141;BME280;46330;50.822;7.126;2023-05-23T01:23:23;101041.66;;;14.77;100.00
9141;BME280;46330;50.822;7.126;2023-05-23T01:26:03;101042.50;;;14.77;100.00
9141;BME280;46330;50.822;7.126;2023-05-23T01:28:40;101040.88;;;14.73;100.00
9141;BME280;46330;50.822;7.126;2023-05-23T01:31:10;101040.94;;;14.72;100.00
9141;BME280;46330;50.822;7.126;2023-05-23T01:33:39;101038.16;;;14.76;100.00
9141;BME280;46330;50.822;7.126;2023-05-23T01:36:09;101040.56;;;14.84;100.00
9141;BME280;46330;50.822;7.126;2023-05-23T01:38:39;101043.97;;;14.87;100.00
9141;BME280;46330;50.822;7.126;2023-05-23T01:41:07;101048.13;;;14.94;100.00
9141;BME280;46330;50.822;7.126;2023-05-23T01:43:38;101034.94;;;14.94;100.00
9141;BME280;46330;50.822;7.126;2023-05-23T01:46:06;101036.66;;;14.97;99.43
9141;BME280;46330;50.822;7.126;2023-05-23T01:48:35;101033.81;;;15.03;98.85
9141;BME280;46330;50.822;7.126;2023-05-23T01:51:03;101039.13;;;15.01;98.19
9141;BME280;46330;50.822;7.126;2023-05-23T01:53:33;101038.16;;;15.04;97.34
9141;BME280;46330;50.822;7.126;2023-05-23T01:56:02;101032.88;;;15.04;96.08
9141;BME280;46330;50.822;7.126;2023-05-23T01:58:30;101032.75;;;15.08;95.42
9141;BME280;46330;50.822;7.126;2023-05-23T02:01:00;101038.81;;;15.12;95.28
9141;BME280;46330;50.822;7.126;2023-05-23T02:03:29;101028.28;;;15.11;95.44
9141;BME280;46330;50.822;7.126;2023-05-23T02:05:57;101037.94;;;15.12;95.78
9141;BME280;46330;50.822;7.126;2023-05-23T02:08:26;101049.44;;;15.09;96.17
9141;BME280;46330;50.822;7.126;2023-05-23T02:10:54;101052.66;;;15.19;96.22
9141;BME280;46330;50.822;7.126;2023-05-23T02:13:22;101053.63;;;15.16;96.78
9141;BME280;46330;50.822;7.126;2023-05-23T02:15:50;101056.19;;;15.18;97.36
9141;BME280;46330;50.822;7.126;2023-05-23T02:18:20;101068.78;;;15.08;98.06
9141;BME280;46330;50.822;7.126;2023-05-23T02:20:49;101065.28;;;15.07;97.50
9141;BME280;46330;50.822;7.126;2023-05-23T02:23:17;101075.91;;;15.04;96.89
9141;BME280;46330;50.822;7.126;2023-05-23T02:25:45;101082.13;;;15.03;95.25
9141;BME280;46330;50.822;7.126;2023-05-23T02:28:13;101082.22;;;15.00;94.14
9141;BME280;46330;50.822;7.126;2023-05-23T02:30:41;101084.06;;;14.97;93.73
9141;BME280;46330;50.822;7.126;2023-05-23T02:33:09;101077.88;;;14.98;93.69
9141;BME280;46330;50.822;7.126;2023-05-23T02:35:39;101092.78;;;14.99;93.57
9141;BME280;46330;50.822;7.126;2023-05-23T02:38:09;101092.91;;;14.94;93.94
9141;BME280;46330;50.822;7.126;2023-05-23T02:40:39;101097.16;;;15.00;94.26
9141;BME280;46330;50.822;7.126;2023-05-23T02:43:07;101093.75;;;14.95;94.18
9141;BME280;46330;50.822;7.126;2023-05-23T02:45:35;101099.19;;;14.90;92.83
9141;BME280;46330;50.822;7.126;2023-05-23T02:48:03;101085.69;;;15.01;92.53
9141;BME280;46330;50.822;7.126;2023-05-23T02:50:32;101084.78;;;15.02;92.94
9141;BME280;46330;50.822;7.126;2023-05-23T02:53:01;101083.00;;;15.02;93.75
9141;BME280;46330;50.822;7.126;2023-05-23T02:55:29;101086.53;;;15.03;94.21
9141;BME280;46330;50.822;7.126;2023-05-23T02:57:58;101090.03;;;15.03;94.45
9141;BME280;46330;50.822;7.126;2023-05-23T03:00:26;101080.47;;;14.99;95.01
9141;BME280;46330;50.822;7.126;2023-05-23T03:02:56;101086.53;;;15.03;95.00
9141;BME280;46330;50.822;7.126;2023-05-23T03:05:24;101098.22;;;14.93;94.13
9141;BME280;46330;50.822;7.126;2023-05-23T03:07:52;101098.31;;;14.90;94.11
9141;BME280;46330;50.822;7.126;2023-05-23T03:10:22;101089.63;;;14.88;94.06
9141;BME280;46330;50.822;7.126;2023-05-23T03:12:50;101081.47;;;14.95;94.53
9141;BME280;46330;50.822;7.126;2023-05-23T03:15:18;101090.34;;;14.91;94.45
9141;BME280;46330;50.822;7.126;2023-05-23T03:17:46;101095.53;;;14.94;94.41
9141;BME280;46330;50.822;7.126;2023-05-23T03:20:15;101092.88;;;14.96;94.07
9141;BME280;46330;50.822;7.126;2023-05-23T03:22:43;101090.22;;;14.96;93.96
9141;BME280;46330;50.822;7.126;2023-05-23T03:25:11;101097.44;;;14.91;94.44
9141;BME280;46330;50.822;7.126;2023-05-23T03:27:41;101090.16;;;14.99;93.94
9141;BME280;46330;50.822;7.126;2023-05-23T03:30:09;101094.81;;;14.89;94.05
9141;BME280;46330;50.822;7.126;2023-05-23T03:32:38;101100.06;;;14.91;94.19
9141;BME280;46330;50.822;7.126;2023-05-23T03:35:07;101112.38;;;14.89;94.47
9141;BME280;46330;50.822;7.126;2023-05-23T03:37:36;101112.53;;;14.84;94.67
9141;BME280;46330;50.822;7.126;2023-05-23T03:40:05;101115.94;;;14.88;94.85
9141;BME280;46330;50.822;7.126;2023-05-23T03:42:35;101107.28;;;14.84;94.72
9141;BME280;46330;50.822;7.126;2023-05-23T03:45:05;101110.03;;;14.80;94.60
9141;BME280;46330;50.822;7.126;2023-05-23T03:47:34;101108.97;;;14.85;95.20
9141;BME280;46330;50.822;7.126;2023-05-23T03:50:04;101117.91;;;14.81;96.24
9141;BME280;46330;50.822;7.126;2023-05-23T03:52:34;101110.09;;;14.78;96.95
9141;BME280;46330;50.822;7.126;2023-05-23T03:55:03;101118.78;;;14.80;98.20
9141;BME280;46330;50.822;7.126;2023-05-23T03:57:31;101114.75;;;14.69;98.72
9141;BME280;46330;50.822;7.126;2023-05-23T03:59:59;101111.25;;;14.68;98.82
9141;BME280;46330;50.822;7.126;2023-05-23T04:02:30;101116.53;;;14.67;99.16
9141;BME280;46330;50.822;7.126;2023-05-23T04:04:59;101115.47;;;14.74;99.27
9141;BME280;46330;50.822;7.126;2023-05-23T04:07:28;101116.50;;;14.68;100.00
9141;BME280;46330;50.822;7.126;2023-05-23T04:10:00;101119.19;;;14.67;100.00
9141;BME280;46330;50.822;7.126;2023-05-23T04:12:28;101121.09;;;14.62;100.00
9141;BME280;46330;50.822;7.126;2023-05-23T04:14:57;101125.03;;;14.45;100.00
9141;BME280;46330;50.822;7.126;2023-05-23T04:17:26;101128.44;;;14.50;100.00
9141;BME280;46330;50.822;7.126;2023-05-23T04:19:58;101122.41;;;14.45;100.00
9141;BME280;46330;50.822;7.126;2023-05-23T04:22:26;101126.91;;;14.42;100.00
9141;BME280;46330;50.822;7.126;2023-05-23T04:24:54;101127.06;;;14.36;100.00
9141;BME280;46330;50.822;7.126;2023-05-23T04:27:22;101127.06;;;14.36;100.00
9141;BME280;46330;50.822;7.126;2023-05-23T04:29:53;101137.50;;;14.39;100.00
9141;BME280;46330;50.822;7.126;2023-05-23T04:32:22;101141.97;;;14.37;100.00
9141;BME280;46330;50.822;7.126;2023-05-23T04:34:51;101138.59;;;14.30;100.00
9141;BME280;46330;50.822;7.126;2023-05-23T04:37:21;101142.09;;;14.31;100.00
9141;BME280;46330;50.822;7.126;2023-05-23T04:39:52;101142.94;;;14.33;100.00
9141;BME280;46330;50.822;7.126;2023-05-23T04:42:36;101146.47;;;14.30;100.00
9141;BME280;46330;50.822;7.126;2023-05-23T04:45:21;101146.47;;;14.32;100.00
9141;BME280;46330;50.822;7.126;2023-05-23T04:48:01;101137.66;;;14.34;100.00
9141;BME280;46330;50.822;7.126;2023-05-23T04:50:43;101142.09;;;14.31;100.00
9141;BME280;46330;50.822;7.126;2023-05-23T04:53:14;101143.78;;;14.35;100.00
9141;BME280;46330;50.822;7.126;2023-05-23T04:55:43;101146.56;;;14.27;100.00
9141;BME280;46330;50.822;7.126;2023-05-23T04:58:15;101135.81;;;14.38;100.00
9141;BME280;46330;50.822;7.126;2023-05-23T05:00:43;101145.59;;;14.31;100.00
9141;BME280;46330;50.822;7.126;2023-05-23T05:03:13;101156.00;;;14.37;100.00
9141;BME280;46330;50.822;7.126;2023-05-23T05:05:44;101151.69;;;14.33;100.00
9141;BME280;46330;50.822;7.126;2023-05-23T05:08:14;101149.03;;;14.35;100.00
9141;BME280;46330;50.822;7.126;2023-05-23T05:10:45;101151.59;;;14.38;100.00
9141;BME280;46330;50.822;7.126;2023-05-23T05:13:15;101150.81;;;14.34;100.00
9141;BME280;46330;50.822;7.126;2023-05-23T05:15:54;101157.69;;;14.38;100.00
9141;BME280;46330;50.822;7.126;2023-05-23T05:18:24;101152.44;;;14.38;100.00
9141;BME280;46330;50.822;7.126;2023-05-23T05:20:55;101155.91;;;14.40;100.00
9141;BME280;46330;50.822;7.126;2023-05-23T05:23:25;101155.75;;;14.45;100.00
9141;BME280;46330;50.822;7.126;2023-05-23T05:25:56;101155.00;;;14.41;100.00
9141;BME280;46330;50.822;7.126;2023-05-23T05:28:24;101171.69;;;14.40;100.00
9141;BME280;46330;50.822;7.126;2023-05-23T05:30:52;101162.22;;;14.33;100.00
9141;BME280;46330;50.822;7.126;2023-05-23T05:33:22;101162.44;;;14.24;100.00
9141;BME280;46330;50.822;7.126;2023-05-23T05:36:00;101168.56;;;14.25;100.00
9141;BME280;46330;50.822;7.126;2023-05-23T05:38:30;101171.34;;;14.19;100.00
9141;BME280;46330;50.822;7.126;2023-05-23T05:40:58;101174.88;;;14.18;100.00
9141;BME280;46330;50.822;7.126;2023-05-23T05:43:32;101169.38;;;14.27;100.00
9141;BME280;46330;50.822;7.126;2023-05-23T05:46:00;101182.44;;;14.31;100.00
9141;BME280;46330;50.822;7.126;2023-05-23T05:48:28;101179.69;;;14.37;100.00
9141;BME280;46330;50.822;7.126;2023-05-23T05:51:00;101179.50;;;14.43;100.00
9141;BME280;46330;50.822;7.126;2023-05-23T05:53:33;101192.66;;;14.43;100.00
9141;BME280;46330;50.822;7.126;2023-05-23T05:56:01;101184.16;;;14.34;100.00
9141;BME280;46330;50.822;7.126;2023-05-23T05:58:31;101190.03;;;14.43;100.00
9141;BME280;46330;50.822;7.126;2023-05-23T06:01:05;101192.59;;;14.46;100.00
9141;BME280;46330;50.822;7.126;2023-05-23T06:03:33;101195.31;;;14.43;100.00
9141;BME280;46330;50.822;7.126;2023-05-23T06:06:02;101194.59;;;14.37;100.00
9141;BME280;46330;50.822;7.126;2023-05-23T06:08:30;101197.22;;;14.37;100.00
9141;BME280;46330;50.822;7.126;2023-05-23T06:10:59;101188.28;;;14.44;100.00
9141;BME280;46330;50.822;7.126;2023-05-23T06:13:27;101193.47;;;14.45;100.00
9141;BME280;46330;50.822;7.126;2023-05-23T06:15:55;101197.13;;;14.41;100.00
9141;BME280;46330;50.822;7.126;2023-05-23T06:18:24;101202.50;;;14.35;100.00
9141;BME280;46330;50.822;7.126;2023-05-23T06:20:52;101208.56;;;14.39;100.00
9141;BME280;46330;50.822;7.126;2023-05-23T06:23:21;101203.34;;;14.37;100.00
9141;BME280;46330;50.822;7.126;2023-05-23T06:25:49;101210.41;;;14.35;100.00
9141;BME280;46330;50.822;7.126;2023-05-23T06:28:18;101208.78;;;14.30;100.00
9141;BME280;46330;50.822;7.126;2023-05-23T06:30:46;101201.69;;;14.33;100.00
9141;BME280;46330;50.822;7.126;2023-05-23T06:33:15;101199.06;;;14.33;100.00
9141;BME280;46330;50.822;7.126;2023-05-23T06:35:43;101205.31;;;14.28;100.00
9141;BME280;46330;50.822;7.126;2023-05-23T06:38:11;101205.25;;;14.31;100.00
9141;BME280;46330;50.822;7.126;2023-05-23T06:40:41;101211.34;;;14.33;100.00
9141;BME280;46330;50.822;7.126;2023-05-23T06:43:09;101217.41;;;14.36;100.00
9141;BME280;46330;50.822;7.126;2023-05-23T06:45:39;101211.34;;;14.34;100.00
9141;BME280;46330;50.822;7.126;2023-05-23T06:48:11;101206.00;;;14.37;100.00
9141;BME280;46330;50.822;7.126;2023-05-23T06:50:40;101214.78;;;14.36;100.00
9141;BME280;46330;50.822;7.126;2023-05-23T06:53:10;101213.03;;;14.37;100.00
9141;BME280;46330;50.822;7.126;2023-05-23T06:55:40;101219.00;;;14.42;100.00
9141;BME280;46330;50.822;7.126;2023-05-23T06:58:11;101216.66;;;14.30;100.00
9141;BME280;46330;50.822;7.126;2023-05-23T07:00:40;101219.28;;;14.31;100.00
9141;BME280;46330;50.822;7.126;2023-05-23T07:03:18;101222.81;;;14.30;100.00
9141;BME280;46330;50.822;7.126;2023-05-23T07:05:46;101227.84;;;14.41;100.00
9141;BME280;46330;50.822;7.126;2023-05-23T07:08:16;101223.53;;;14.37;100.00
9141;BME280;46330;50.822;7.126;2023-05-23T07:10:55;101227.84;;;14.39;100.00
9141;BME280;46330;50.822;7.126;2023-05-23T07:13:41;101229.63;;;14.39;100.00
9141;BME280;46330;50.822;7.126;2023-05-23T07:16:18;101228.88;;;14.34;100.00
9141;BME280;46330;50.822;7.126;2023-05-23T07:19:00;101228.97;;;14.29;100.00
9141;BME280;46330;50.822;7.126;2023-05-23T07:21:33;101240.31;;;14.33;100.00
9141;BME280;46330;50.822;7.126;2023-05-23T07:24:01;101235.88;;;14.35;100.00
9141;BME280;46330;50.822;7.126;2023-05-23T07:26:29;101243.56;;;14.42;100.00
9141;BME280;46330;50.822;7.126;2023-05-23T07:28:58;101238.38;;;14.41;100.00
9141;BME280;46330;50.822;7.126;2023-05-23T07:31:27;101234.88;;;14.40;100.00
9141;BME280;46330;50.822;7.126;2023-05-23T07:33:58;101238.84;;;14.57;100.00
9141;BME280;46330;50.822;7.126;2023-05-23T07:36:33;101241.66;;;14.49;100.00
9141;BME280;46330;50.822;7.126;2023-05-23T07:39:06;101246.72;;;14.57;100.00
9141;BME280;46330;50.822;7.126;2023-05-23T07:41:35;101237.97;;;14.56;100.00
9141;BME280;46330;50.822;7.126;2023-05-23T07:44:03;101244.09;;;14.57;99.92
9141;BME280;46330;50.822;7.126;2023-05-23T07:46:32;101247.44;;;14.63;99.82
9141;BME280;46330;50.822;7.126;2023-05-23T07:49:00;101248.28;;;14.64;98.79
9141;BME280;46330;50.822;7.126;2023-05-23T07:51:29;101251.06;;;14.58;98.21
9141;BME280;46330;50.822;7.126;2023-05-23T07:53:58;101248.53;;;14.54;97.99
9141;BME280;46330;50.822;7.126;2023-05-23T07:56:26;101249.22;;;14.61;98.31
9141;BME280;46330;50.822;7.126;2023-05-23T07:58:54;101253.47;;;14.67;97.60
9141;BME280;46330;50.822;7.126;2023-05-23T08:01:23;101260.69;;;14.60;96.45
9141;BME280;46330;50.822;7.126;2023-05-23T08:04:01;101259.66;;;14.66;95.84
9141;BME280;46330;50.822;7.126;2023-05-23T08:06:37;101267.31;;;14.75;94.26
9141;BME280;46330;50.822;7.126;2023-05-23T08:09:18;101258.38;;;14.80;93.27
9141;BME280;46330;50.822;7.126;2023-05-23T08:11:50;101267.88;;;14.86;92.89
9141;BME280;46330;50.822;7.126;2023-05-23T08:14:19;101272.25;;;14.87;91.62
9141;BME280;46330;50.822;7.126;2023-05-23T08:16:54;101282.78;;;14.87;91.34
9141;BME280;46330;50.822;7.126;2023-05-23T08:19:26;101272.16;;;14.90;91.89
9141;BME280;46330;50.822;7.126;2023-05-23T08:21:55;101279.19;;;14.91;91.67
9141;BME280;46330;50.822;7.126;2023-05-23T08:24:23;101288.53;;;15.01;91.25
9141;BME280;46330;50.822;7.126;2023-05-23T08:26:52;101277.28;;;14.96;91.04
9141;BME280;46330;50.822;7.126;2023-05-23T08:29:21;101293.69;;;15.05;91.46
9141;BME280;46330;50.822;7.126;2023-05-23T08:31:49;101282.53;;;14.97;90.28
9141;BME280;46330;50.822;7.126;2023-05-23T08:34:18;101290.38;;;14.99;90.31
9141;BME280;46330;50.822;7.126;2023-05-23T08:36:48;101292.97;;;15.00;90.49
9141;BME280;46330;50.822;7.126;2023-05-23T08:39:20;101286.84;;;15.00;90.34
9141;BME280;46330;50.822;7.126;2023-05-23T08:41:55;101289.50;;;14.98;89.52
9141;BME280;46330;50.822;7.126;2023-05-23T08:44:23;101288.75;;;14.93;90.00
9141;BME280;46330;50.822;7.126;2023-05-23T08:47:00;101286.25;;;14.89;91.01
9141;BME280;46330;50.822;7.126;2023-05-23T08:49:46;101298.44;;;14.93;90.35
9141;BME280;46330;50.822;7.126;2023-05-23T08:52:20;101300.25;;;14.91;90.44
9141;BME280;46330;50.822;7.126;2023-05-23T08:54:54;101308.00;;;14.97;90.11
9141;BME280;46330;50.822;7.126;2023-05-23T08:57:22;101299.91;;;15.03;90.59
9141;BME280;46330;50.822;7.126;2023-05-23T08:59:58;101308.47;;;15.11;90.20
9141;BME280;46330;50.822;7.126;2023-05-23T09:02:28;101313.50;;;15.20;90.80
9141;BME280;46330;50.822;7.126;2023-05-23T09:05:08;101318.84;;;15.17;92.54
9141;BME280;46330;50.822;7.126;2023-05-23T09:07:38;101320.13;;;15.02;93.41
9141;BME280;46330;50.822;7.126;2023-05-23T09:10:08;101315.91;;;14.97;94.24
9141;BME280;46330;50.822;7.126;2023-05-23T09:12:37;101320.72;;;14.80;96.19
9141;BME280;46330;50.822;7.126;2023-05-23T09:15:06;101322.31;;;14.87;97.00
9141;BME280;46330;50.822;7.126;2023-05-23T09:17:35;101317.28;;;14.78;97.88
9141;BME280;46330;50.822;7.126;2023-05-23T09:20:10;101329.09;;;14.62;97.25
9141;BME280;46330;50.822;7.126;2023-05-23T09:22:47;101327.66;;;14.48;98.06
9141;BME280;46330;50.822;7.126;2023-05-23T09:25:17;101335.75;;;14.41;98.48
9141;BME280;46330;50.822;7.126;2023-05-23T09:27:46;101333.69;;;14.53;98.83
9141;BME280;46330;50.822;7.126;2023-05-23T09:30:16;101328.50;;;14.50;97.48
9141;BME280;46330;50.822;7.126;2023-05-23T09:32:57;101328.44;;;14.53;96.76
9141;BME280;46330;50.822;7.126;2023-05-23T09:35:29;101331.81;;;14.57;95.39
9141;BME280;46330;50.822;7.126;2023-05-23T09:37:59;101335.41;;;14.54;95.68
9141;BME280;46330;50.822;7.126;2023-05-23T09:40:29;101340.72;;;14.53;94.70
9141;BME280;46330;50.822;7.126;2023-05-23T09:43:03;101344.09;;;14.58;94.35
9141;BME280;46330;50.822;7.126;2023-05-23T09:45:33;101337.56;;;14.74;93.88
9141;BME280;46330;50.822;7.126;2023-05-23T09:48:01;101334.91;;;14.74;93.15
9141;BME280;46330;50.822;7.126;2023-05-23T09:50:31;101339.16;;;14.80;92.54
9141;BME280;46330;50.822;7.126;2023-05-23T09:53:03;101329.97;;;14.96;91.99
9141;BME280;46330;50.822;7.126;2023-05-23T09:55:31;101330.91;;;14.93;92.02
9141;BME280;46330;50.822;7.126;2023-05-23T09:58:00;101334.72;;;15.16;90.75
9141;BME280;46330;50.822;7.126;2023-05-23T10:00:29;101335.69;;;15.12;89.39
9141;BME280;46330;50.822;7.126;2023-05-23T10:03:05;101341.84;;;15.11;88.90
9141;BME280;46330;50.822;7.126;2023-05-23T10:05:42;101340.34;;;15.34;87.48
9141;BME280;46330;50.822;7.126;2023-05-23T10:08:15;101355.81;;;15.14;85.98
9141;BME280;46330;50.822;7.126;2023-05-23T10:13:48;101357.41;;;15.20;86.35
9141;BME280;46330;50.822;7.126;2023-05-23T10:16:19;101355.13;;;15.07;86.63
9141;BME280;46330;50.822;7.126;2023-05-23T10:18:54;101365.72;;;15.06;87.74
9141;BME280;46330;50.822;7.126;2023-05-23T10:21:25;101369.31;;;15.02;88.83
9141;BME280;46330;50.822;7.126;2023-05-23T10:23:59;101370.50;;;14.90;89.70
9141;BME280;46330;50.822;7.126;2023-05-23T10:26:27;101359.44;;;14.76;91.42
9141;BME280;46330;50.822;7.126;2023-05-23T10:28:56;101374.34;;;14.77;91.36
9141;BME280;46330;50.822;7.126;2023-05-23T10:31:25;101377.06;;;14.73;91.08
9141;BME280;46330;50.822;7.126;2023-05-23T10:33:59;101375.38;;;14.70;90.39
9141;BME280;46330;50.822;7.126;2023-05-23T10:36:35;101382.41;;;14.71;90.65
9141;BME280;46330;50.822;7.126;2023-05-23T10:39:11;101380.56;;;14.75;90.11
9141;BME280;46330;50.822;7.126;2023-05-23T10:41:46;101385.06;;;15.05;88.47
9141;BME280;46330;50.822;7.126;2023-05-23T10:44:19;101384.16;;;15.06;88.83
9141;BME280;46330;50.822;7.126;2023-05-23T10:46:51;101377.53;;;15.24;87.74
9141;BME280;46330;50.822;7.126;2023-05-23T10:49:20;101381.13;;;15.21;85.32
9141;BME280;46330;50.822;7.126;2023-05-23T10:51:48;101381.75;;;15.31;84.71
9141;BME280;46330;50.822;7.126;2023-05-23T10:54:19;101384.16;;;15.38;84.15
9141;BME280;46330;50.822;7.126;2023-05-23T10:56:47;101378.81;;;15.74;83.13
9141;BME280;46330;50.822;7.126;2023-05-23T10:59:29;101382.63;;;16.22;80.33
9141;BME280;46330;50.822;7.126;2023-05-23T11:01:59;101373.63;;;16.57;78.58
9141;BME280;46330;50.822;7.126;2023-05-23T11:04:28;101379.78;;;17.10;75.47
9141;BME280;46330;50.822;7.126;2023-05-23T11:06:56;101390.72;;;16.73;76.91
9141;BME280;46330;50.822;7.126;2023-05-23T11:09:26;101388.31;;;16.93;75.85
9141;BME280;46330;50.822;7.126;2023-05-23T11:11:58;101386.97;;;16.80;77.14
9141;BME280;46330;50.822;7.126;2023-05-23T11:14:32;101391.75;;;16.12;78.66
9141;BME280;46330;50.822;7.126;2023-05-23T11:17:14;101394.97;;;15.62;80.91
9141;BME280;46330;50.822;7.126;2023-05-23T11:19:55;101395.34;;;15.48;81.86
9141;BME280;46330;50.822;7.126;2023-05-23T11:22:28;101395.94;;;15.59;81.40
9141;BME280;46330;50.822;7.126;2023-05-23T11:24:59;101406.25;;;15.67;81.06
9141;BME280;46330;50.822;7.126;2023-05-23T11:27:28;101405.25;;;15.38;81.09
9141;BME280;46330;50.822;7.126;2023-05-23T11:29:59;101408.88;;;15.34;82.40
9141;BME280;46330;50.822;7.126;2023-05-23T11:32:28;101421.28;;;15.63;81.33
9141;BME280;46330;50.822;7.126;2023-05-23T11:35:00;101416.53;;;15.76;80.47
9141;BME280;46330;50.822;7.126;2023-05-23T11:37:29;101429.59;;;15.49;81.19
9141;BME280;46330;50.822;7.126;2023-05-23T11:40:00;101425.56;;;15.99;80.19
9141;BME280;46330;50.822;7.126;2023-05-23T11:42:47;101422.44;;;17.26;76.12
9141;BME280;46330;50.822;7.126;2023-05-23T11:45:15;101425.25;;;17.46;72.88
9141;BME280;46330;50.822;7.126;2023-05-23T11:47:43;101432.25;;;17.22;72.95
9141;BME280;46330;50.822;7.126;2023-05-23T11:50:11;101431.63;;;16.88;72.78
9141;BME280;46330;50.822;7.126;2023-05-23T11:52:39;101426.22;;;17.18;71.93
9141;BME280;46330;50.822;7.126;2023-05-23T11:55:09;101427.28;;;16.87;72.55
9141;BME280;46330;50.822;7.126;2023-05-23T11:57:37;101431.91;;;16.51;73.73
9141;BME280;46330;50.822;7.126;2023-05-23T12:00:08;101431.22;;;16.44;74.26
9141;BME280;46330;50.822;7.126;2023-05-23T12:02:37;101436.13;;;16.58;73.58
9141;BME280;46330;50.822;7.126;2023-05-23T12:05:07;101442.25;;;16.00;74.75
9141;BME280;46330;50.822;7.126;2023-05-23T12:07:39;101443.16;;;15.68;76.40
9141;BME280;46330;50.822;7.126;2023-05-23T12:10:09;101443.06;;;15.71;75.98
9141;BME280;46330;50.822;7.126;2023-05-23T12:12:39;101442.25;;;15.69;75.56
9141;BME280;46330;50.822;7.126;2023-05-23T12:15:09;101444.75;;;15.74;74.29
9141;BME280;46330;50.822;7.126;2023-05-23T12:17:37;101444.75;;;17.17;71.96
9141;BME280;46330;50.822;7.126;2023-05-23T12:20:06;101446.88;;;17.32;69.48
9141;BME280;46330;50.822;7.126;2023-05-23T12:22:34;101448.38;;;18.13;65.72
9141;BME280;46330;50.822;7.126;2023-05-23T12:25:08;101451.50;;;18.01;64.71
9141;BME280;46330;50.822;7.126;2023-05-23T12:27:39;101448.50;;;18.57;64.05
9141;BME280;46330;50.822;7.126;2023-05-23T12:30:09;101454.59;;;18.80;63.42
9141;BME280;46330;50.822;7.126;2023-05-23T12:32:39;101448.19;;;18.41;62.03
9141;BME280;46330;50.822;7.126;2023-05-23T12:35:08;101441.31;;;18.60;62.55
9141;BME280;46330;50.822;7.126;2023-05-23T12:37:39;101440.72;;;18.29;61.19
9141;BME280;46330;50.822;7.126;2023-05-23T12:40:11;101441.13;;;19.08;60.40
9141;BME280;46330;50.822;7.126;2023-05-23T12:42:49;101451.00;;;18.83;58.67
9141;BME280;46330;50.822;7.126;2023-05-23T12:45:19;101440.78;;;18.51;60.33
9141;BME280;46330;50.822;7.126;2023-05-23T12:47:47;101437.53;;;18.66;58.81
9141;BME280;46330;50.822;7.126;2023-05-23T12:50:19;101444.00;;;18.59;58.65
9141;BME280;46330;50.822;7.126;2023-05-23T12:52:47;101443.28;;;17.84;60.76
9141;BME280;46330;50.822;7.126;2023-05-23T12:55:16;101441.78;;;17.52;61.64
9141;BME280;46330;50.822;7.126;2023-05-23T12:57:44;101451.19;;;16.82;62.98
9141;BME280;46330;50.822;7.126;2023-05-23T13:00:13;101447.16;;;16.98;64.15
9141;BME280;46330;50.822;7.126;2023-05-23T13:02:41;101455.13;;;16.97;63.13
9141;BME280;46330;50.822;7.126;2023-05-23T13:05:09;101449.13;;;16.64;64.99
9141;BME280;46330;50.822;7.126;2023-05-23T13:07:37;101445.50;;;16.68;64.59
9141;BME280;46330;50.822;7.126;2023-05-23T13:10:07;101447.72;;;17.08;62.75
9141;BME280;46330;50.822;7.126;2023-05-23T13:12:37;101444.56;;;17.23;62.73
9141;BME280;46330;50.822;7.126;2023-05-23T13:15:06;101459.91;;;16.86;64.66